Time;durP1;ratioP1;P1;durP2;ratioP2;P2;SDS_P1;SDS_P2;PMS_P1;PMS_P2;Temp;Humidity;BMP_temperature;BMP_pressure;BME280_temperature;BME280_humidity;BME280_pressure;Samples;Min_cycle;Max_cycle;Signal;HPM_P1;HPM_P2
2021/11/14 00:01:30;;;;;;;19.05;16.95;;;9.10;99.90;;;;;;6218946;23;20178;-85
2021/11/14 00:03:57;;;;;;;22.23;18.15;;;9.10;99.90;;;;;;6218776;23;20178;-86
2021/11/14 00:06:24;;;;;;;20.73;17.63;;;9.00;99.90;;;;;;6218993;23;20202;-86
2021/11/14 00:08:51;;;;;;;20.60;17.20;;;9.00;99.90;;;;;;6218772;23;20195;-86
2021/11/14 00:11:21;;;;;;;23.10;19.38;;;9.00;99.90;;;;;;6218726;23;20182;-86
2021/11/14 00:13:51;;;;;;;19.73;17.00;;;9.10;99.90;;;;;;6219205;23;20606;-87
2021/11/14 00:16:20;;;;;;;20.02;18.02;;;9.00;99.90;;;;;;6219423;23;20225;-87
2021/11/14 00:18:47;;;;;;;22.58;19.10;;;9.00;99.90;;;;;;6219544;23;20177;-87
2021/11/14 00:21:17;;;;;;;27.92;22.75;;;8.90;99.90;;;;;;6221440;23;20181;-86
2021/11/14 00:23:43;;;;;;;23.58;20.80;;;8.90;99.90;;;;;;6220960;23;20177;-87
2021/11/14 00:26:11;;;;;;;22.17;19.65;;;8.90;99.90;;;;;;6220721;23;20537;-88
2021/11/14 00:28:39;;;;;;;24.05;21.50;;;8.90;99.90;;;;;;6222517;23;20201;-86
2021/11/14 00:31:07;;;;;;;21.80;18.23;;;9.00;99.90;;;;;;6226487;23;20177;-86
2021/11/14 00:33:34;;;;;;;22.50;20.02;;;9.00;99.90;;;;;;6222825;23;20182;-87
2021/11/14 00:36:01;;;;;;;22.02;18.65;;;9.00;99.90;;;;;;6220755;23;20213;-87
2021/11/14 00:38:28;;;;;;;24.33;20.60;;;9.00;99.90;;;;;;6221501;23;20645;-86
2021/11/14 00:40:55;;;;;;;24.45;20.13;;;9.00;99.90;;;;;;6221183;23;20178;-87
2021/11/14 00:43:22;;;;;;;23.38;20.58;;;9.00;99.90;;;;;;6221136;23;20182;-87
2021/11/14 00:45:49;;;;;;;20.58;18.45;;;9.00;99.90;;;;;;6220547;23;20205;-87
2021/11/14 00:48:18;;;;;;;24.50;20.25;;;9.00;99.90;;;;;;6220742;23;20194;-86
2021/11/14 00:50:47;;;;;;;27.52;20.75;;;9.00;99.90;;;;;;6221674;23;20184;-86
2021/11/14 00:53:17;;;;;;;23.52;20.45;;;9.00;99.90;;;;;;6220943;23;20184;-86
2021/11/14 00:55:46;;;;;;;21.90;19.65;;;9.10;99.90;;;;;;6219925;23;20246;-87
2021/11/14 00:58:12;;;;;;;23.48;20.98;;;9.10;99.90;;;;;;6220016;23;20170;-86
2021/11/14 01:00:40;;;;;;;23.80;19.92;;;9.10;99.90;;;;;;6220689;23;20172;-86
2021/11/14 01:03:08;;;;;;;23.42;19.13;;;9.10;99.90;;;;;;6220330;23;20177;-86
2021/11/14 01:05:41;;;;;;;23.52;20.40;;;9.10;99.90;;;;;;6220748;23;20237;-87
2021/11/14 01:08:09;;;;;;;22.05;19.70;;;9.10;99.90;;;;;;6220670;23;20189;-86
2021/11/14 01:10:45;;;;;;;22.30;19.95;;;9.10;99.90;;;;;;6220445;23;20173;-86
2021/11/14 01:13:12;;;;;;;20.67;18.52;;;9.10;99.90;;;;;;6219501;23;20177;-87
2021/11/14 01:15:41;;;;;;;26.42;20.27;;;9.10;99.90;;;;;;6220720;23;20260;-87
2021/11/14 01:18:09;;;;;;;23.40;19.33;;;9.00;99.90;;;;;;6220772;23;20186;-87
2021/11/14 01:20:40;;;;;;;21.17;19.05;;;9.00;99.90;;;;;;6222050;23;20204;-86
2021/11/14 01:23:09;;;;;;;22.48;20.08;;;8.90;99.90;;;;;;6220170;23;20168;-87
2021/11/14 01:25:36;;;;;;;23.33;20.95;;;8.90;99.90;;;;;;6221499;23;20208;-86
2021/11/14 01:28:04;;;;;;;22.95;20.58;;;8.90;99.90;;;;;;6223243;23;20204;-87
2021/11/14 01:30:33;;;;;;;22.75;19.95;;;8.90;99.90;;;;;;6225457;23;20265;-86
2021/11/14 01:33:01;;;;;;;22.58;20.13;;;8.90;99.90;;;;;;6239931;23;20237;-87
2021/11/14 01:35:30;;;;;;;21.15;18.83;;;8.90;99.90;;;;;;6241914;22;20231;-86
2021/11/14 01:37:59;;;;;;;21.35;18.85;;;8.90;99.90;;;;;;6226778;23;20586;-87
2021/11/14 01:40:28;;;;;;;30.80;23.35;;;8.90;99.90;;;;;;6223361;23;20193;-87
2021/11/14 01:42:55;;;;;;;22.58;19.85;;;9.00;99.90;;;;;;6224256;23;20185;-86
2021/11/14 01:45:23;;;;;;;24.13;21.10;;;8.90;99.90;;;;;;6223331;23;20249;-87
2021/11/14 01:47:50;;;;;;;21.67;19.38;;;9.00;99.90;;;;;;6222612;23;20202;-86
2021/11/14 01:50:19;;;;;;;22.20;19.95;;;9.00;99.90;;;;;;6222472;23;20175;-87
2021/11/14 01:52:49;;;;;;;22.67;20.33;;;9.00;99.90;;;;;;6221407;23;20174;-87
2021/11/14 01:55:21;;;;;;;23.83;20.27;;;9.10;99.90;;;;;;6222937;23;20184;-86
2021/11/14 01:57:49;;;;;;;26.30;20.75;;;9.10;99.90;;;;;;6222650;23;20205;-87
2021/11/14 02:00:21;;;;;;;24.33;20.52;;;9.10;99.90;;;;;;6223336;23;20181;-87
2021/11/14 02:02:47;;;;;;;22.40;19.98;;;9.20;99.90;;;;;;6222189;23;20162;-86
2021/11/14 02:05:15;;;;;;;26.52;23.63;;;9.20;99.90;;;;;;6224054;23;20178;-87
2021/11/14 02:07:42;;;;;;;23.45;19.98;;;9.20;99.90;;;;;;6222655;23;20224;-87
2021/11/14 02:10:10;;;;;;;22.42;20.27;;;9.20;99.90;;;;;;6223214;23;20219;-87
2021/11/14 02:12:38;;;;;;;23.92;20.10;;;9.20;99.90;;;;;;6222247;23;20673;-87
2021/11/14 02:15:06;;;;;;;20.80;18.60;;;9.30;99.90;;;;;;6222864;23;20179;-86
2021/11/14 02:17:33;;;;;;;21.75;19.55;;;9.30;99.90;;;;;;6221241;23;20557;-87
2021/11/14 02:20:03;;;;;;;20.15;18.15;;;9.30;99.90;;;;;;6221153;23;20175;-86
2021/11/14 02:22:29;;;;;;;24.15;21.52;;;9.30;99.90;;;;;;6220287;23;20573;-86
2021/11/14 02:24:56;;;;;;;23.70;19.63;;;9.30;99.90;;;;;;6221011;23;20177;-86
2021/11/14 02:27:23;;;;;;;23.92;20.98;;;9.30;99.90;;;;;;6221142;23;20213;-87
2021/11/14 02:29:50;;;;;;;24.05;21.55;;;9.30;99.90;;;;;;6222251;23;20517;-86
2021/11/14 02:32:17;;;;;;;22.88;20.35;;;9.30;99.90;;;;;;6221680;23;20174;-86
2021/11/14 02:34:44;;;;;;;24.52;20.05;;;9.30;99.90;;;;;;6222036;23;20518;-86
2021/11/14 02:37:12;;;;;;;23.25;20.88;;;9.20;99.90;;;;;;6222005;23;20210;-87
2021/11/14 02:39:39;;;;;;;25.83;21.73;;;9.20;99.90;;;;;;6225703;23;20185;-87
2021/11/14 02:42:09;;;;;;;25.27;19.60;;;9.20;99.90;;;;;;6225949;23;20239;-87
2021/11/14 02:44:38;;;;;;;21.55;19.25;;;9.20;99.90;;;;;;6226202;23;20182;-87
2021/11/14 02:47:08;;;;;;;22.67;20.48;;;9.20;99.90;;;;;;6226646;23;20580;-87
2021/11/14 02:49:37;;;;;;;25.38;19.60;;;9.20;99.90;;;;;;6226037;23;20180;-87
2021/11/14 02:52:07;;;;;;;25.10;20.25;;;9.20;99.90;;;;;;6226002;23;20201;-87
2021/11/14 02:54:38;;;;;;;21.23;19.15;;;9.20;99.90;;;;;;6226285;23;20229;-87
2021/11/14 03:10:51;;;;;;;22.48;19.88;;;9.30;99.90;;;;;;6037750;23;20175;-87
2021/11/14 03:13:24;;;;;;;22.13;18.77;;;9.30;99.90;;;;;;6225844;23;20221;-87
2021/11/14 03:15:55;;;;;;;18.80;16.95;;;9.30;99.90;;;;;;6226528;23;20230;-86
2021/11/14 03:18:22;;;;;;;21.73;19.20;;;9.30;99.90;;;;;;6229423;23;20173;-87
2021/11/14 03:20:52;;;;;;;20.75;18.52;;;9.30;99.90;;;;;;6227257;23;20220;-87
2021/11/14 03:23:20;;;;;;;27.67;21.38;;;9.30;99.90;;;;;;6224809;23;20520;-87
2021/11/14 03:25:50;;;;;;;22.92;20.33;;;9.40;99.90;;;;;;6223888;23;20276;-87
2021/11/14 03:28:22;;;;;;;24.88;20.10;;;9.40;99.90;;;;;;6225870;23;20174;-87
2021/11/14 03:30:54;;;;;;;20.10;18.00;;;9.40;99.90;;;;;;6224201;23;20197;-87
2021/11/14 03:33:22;;;;;;;21.95;18.95;;;9.40;99.90;;;;;;6224546;23;20226;-87
2021/11/14 03:35:50;;;;;;;22.05;18.95;;;9.40;99.90;;;;;;6223723;23;20222;-87
2021/11/14 03:38:19;;;;;;;21.77;19.55;;;9.40;99.90;;;;;;6225093;23;20167;-86
2021/11/14 03:40:46;;;;;;;19.17;16.80;;;9.40;99.90;;;;;;6223853;23;20203;-87
2021/11/14 03:43:15;;;;;;;20.45;18.30;;;9.40;99.90;;;;;;6224270;23;20681;-85
2021/11/14 03:45:45;;;;;;;20.50;18.17;;;9.40;99.90;;;;;;6224649;23;20222;-87
2021/11/14 03:48:13;;;;;;;23.52;20.52;;;9.40;99.90;;;;;;6225420;23;20242;-87
2021/11/14 03:50:40;;;;;;;22.05;19.80;;;9.40;99.90;;;;;;6222714;23;20261;-85
2021/11/14 03:53:08;;;;;;;23.35;20.92;;;9.30;99.90;;;;;;6223007;23;20571;-85
2021/11/14 03:55:36;;;;;;;22.25;19.90;;;9.30;99.90;;;;;;6223213;23;20567;-85
2021/11/14 03:58:03;;;;;;;24.92;20.80;;;9.20;99.90;;;;;;6223792;23;20208;-85
2021/11/14 04:01:07;;;;;;;;;;;;;;;;;;;;;
2021/11/14 04:04:12;;;;;;;24.00;20.20;;;9.10;99.90;;;;;;6227184;23;20224;-87
2021/11/14 04:06:46;;;;;;;22.02;19.67;;;9.10;99.90;;;;;;6226728;23;20706;-87
2021/11/14 04:09:16;;;;;;;22.13;18.77;;;9.10;99.90;;;;;;6225287;23;20185;-87
2021/11/14 04:11:45;;;;;;;24.92;20.95;;;9.10;99.90;;;;;;6224134;23;20174;-87
2021/11/14 04:14:14;;;;;;;23.23;20.88;;;9.10;99.90;;;;;;6224954;23;20512;-86
2021/11/14 04:16:47;;;;;;;26.00;20.42;;;9.10;99.90;;;;;;6225435;23;20210;-87
2021/11/14 04:19:18;;;;;;;22.75;20.30;;;9.00;99.90;;;;;;6226438;23;20228;-85
2021/11/14 04:21:45;;;;;;;24.33;21.23;;;9.00;99.90;;;;;;6227206;23;20175;-85
2021/11/14 04:24:12;;;;;;;21.40;18.83;;;9.00;99.90;;;;;;6229018;23;20181;-85
2021/11/14 04:26:39;;;;;;;22.02;18.88;;;9.00;99.90;;;;;;6226288;23;20590;-85
2021/11/14 04:29:05;;;;;;;22.90;20.33;;;9.00;99.90;;;;;;6225545;23;20273;-85
2021/11/14 04:31:33;;;;;;;24.08;21.02;;;9.00;99.90;;;;;;6226936;23;20184;-85
2021/11/14 04:34:01;;;;;;;24.60;19.58;;;9.00;99.90;;;;;;6225263;23;20568;-85
2021/11/14 04:36:28;;;;;;;22.60;20.05;;;9.00;99.90;;;;;;6225047;23;20229;-85
2021/11/14 04:38:55;;;;;;;24.05;20.90;;;9.00;99.90;;;;;;6225940;23;20181;-85
2021/11/14 04:41:21;;;;;;;22.90;20.40;;;9.00;99.90;;;;;;6225742;23;20198;-85
2021/11/14 04:43:50;;;;;;;24.55;20.27;;;9.00;99.90;;;;;;6224909;23;20182;-85
2021/11/14 04:46:17;;;;;;;22.05;19.27;;;9.00;99.90;;;;;;6224910;23;20250;-85
2021/11/14 04:48:44;;;;;;;21.33;18.83;;;9.00;99.90;;;;;;6224763;23;20633;-85
2021/11/14 04:51:12;;;;;;;22.13;18.88;;;8.90;99.90;;;;;;6225421;23;20206;-85
2021/11/14 04:53:44;;;;;;;22.52;17.95;;;8.90;99.90;;;;;;6224280;23;20175;-85
2021/11/14 04:56:24;;;;;;;21.20;18.23;;;8.90;99.90;;;;;;6225335;23;20531;-84
2021/11/14 04:58:57;;;;;;;21.08;17.50;;;8.90;99.90;;;;;;6224676;23;20158;-85
2021/11/14 05:01:48;;;;;;;26.75;18.13;;;8.90;99.90;;;;;;6224805;23;20188;-85
2021/11/14 05:04:16;;;;;;;22.13;17.70;;;8.90;99.90;;;;;;6211483;23;20213;-85
2021/11/14 05:06:44;;;;;;;22.13;18.00;;;8.90;99.90;;;;;;6223906;23;20277;-85
2021/11/14 05:09:11;;;;;;;25.17;20.02;;;8.90;99.90;;;;;;6228699;23;20202;-84
2021/11/14 05:11:38;;;;;;;19.05;17.10;;;8.90;99.90;;;;;;6230552;23;20186;-83
2021/11/14 05:14:05;;;;;;;24.30;19.45;;;8.90;99.90;;;;;;6233110;23;20258;-85
2021/11/14 05:16:31;;;;;;;25.17;20.67;;;8.90;99.90;;;;;;6230967;23;20213;-86
2021/11/14 05:18:58;;;;;;;23.58;19.70;;;8.90;99.90;;;;;;6226871;23;20183;-85
2021/11/14 05:21:25;;;;;;;26.08;20.55;;;8.90;99.90;;;;;;6227428;23;20189;-85
2021/11/14 05:23:53;;;;;;;25.83;21.23;;;8.90;99.90;;;;;;6226172;23;20173;-85
2021/11/14 05:26:20;;;;;;;23.23;20.80;;;8.90;99.90;;;;;;6227748;23;20209;-84
2021/11/14 05:28:48;;;;;;;25.20;21.63;;;8.90;99.90;;;;;;6230095;23;20184;-88
2021/11/14 05:31:16;;;;;;;22.88;18.60;;;9.00;99.90;;;;;;6212524;23;20186;-87
2021/11/14 05:33:43;;;;;;;23.83;19.25;;;9.00;99.90;;;;;;6244854;22;20170;-87
2021/11/14 05:36:09;;;;;;;23.65;18.02;;;9.00;99.90;;;;;;6242176;23;20217;-84
2021/11/14 05:38:36;;;;;;;22.35;18.80;;;9.10;99.90;;;;;;6233686;23;20208;-87
2021/11/14 05:41:04;;;;;;;24.10;18.00;;;9.10;99.90;;;;;;6230241;23;20185;-88
2021/11/14 05:43:31;;;;;;;21.77;19.50;;;9.10;99.90;;;;;;6225141;23;20178;-88
2021/11/14 05:45:58;;;;;;;22.67;20.10;;;9.10;99.90;;;;;;6226600;23;20190;-85
2021/11/14 05:48:25;;;;;;;25.27;20.30;;;9.10;99.90;;;;;;6226811;23;20183;-87
2021/11/14 05:50:52;;;;;;;23.80;20.88;;;9.10;99.90;;;;;;6225085;23;20197;-88
2021/11/14 05:53:19;;;;;;;24.33;20.98;;;9.00;99.90;;;;;;6224226;23;20175;-87
2021/11/14 05:55:47;;;;;;;25.80;21.52;;;8.90;99.90;;;;;;6223369;23;20258;-86
2021/11/14 05:58:17;;;;;;;24.67;19.30;;;8.90;99.90;;;;;;6224796;23;20517;-85
2021/11/14 06:00:50;;;;;;;21.73;18.95;;;8.90;99.90;;;;;;6224476;23;20174;-87
2021/11/14 06:03:33;;;;;;;21.20;18.42;;;8.90;99.90;;;;;;6224931;23;20170;-85
2021/11/14 06:06:01;;;;;;;20.70;18.50;;;9.00;99.90;;;;;;6226253;23;20201;-86
2021/11/14 06:08:28;;;;;;;24.70;20.80;;;9.00;99.90;;;;;;6225003;23;20182;-86
2021/11/14 06:10:56;;;;;;;22.52;19.65;;;9.10;99.90;;;;;;6224600;23;20208;-86
2021/11/14 06:13:26;;;;;;;21.33;18.45;;;9.00;99.90;;;;;;6224083;23;20188;-86
2021/11/14 06:15:53;;;;;;;27.88;20.10;;;9.00;99.90;;;;;;6224838;23;20202;-86
2021/11/14 06:18:20;;;;;;;26.35;20.10;;;9.00;99.90;;;;;;6226809;23;20178;-85
2021/11/14 06:20:47;;;;;;;23.08;17.83;;;9.00;99.90;;;;;;6226977;23;20202;-85
2021/11/14 06:23:14;;;;;;;25.75;22.15;;;9.00;99.90;;;;;;6225283;23;20177;-85
2021/11/14 06:25:41;;;;;;;23.83;19.33;;;9.00;99.90;;;;;;6224173;23;20245;-87
2021/11/14 06:28:08;;;;;;;22.58;19.90;;;9.00;99.90;;;;;;6225426;23;20184;-85
2021/11/14 06:30:38;;;;;;;28.35;21.60;;;9.00;99.90;;;;;;6225517;23;20200;-86
2021/11/14 06:33:05;;;;;;;23.15;20.20;;;9.10;99.90;;;;;;6226376;23;20698;-88
2021/11/14 06:35:32;;;;;;;24.10;19.08;;;9.20;99.90;;;;;;6227948;23;20182;-86
2021/11/14 06:37:59;;;;;;;26.88;20.38;;;9.20;99.90;;;;;;6228135;23;20197;-85
2021/11/14 06:40:26;;;;;;;24.20;20.92;;;9.30;99.90;;;;;;6227356;23;20178;-86
2021/11/14 06:42:52;;;;;;;25.45;19.88;;;9.20;99.90;;;;;;6227186;23;20237;-87
2021/11/14 06:45:19;;;;;;;23.95;20.40;;;8.80;99.90;;;;;;6224937;23;20182;-86
2021/11/14 06:47:47;;;;;;;26.27;20.95;;;8.60;99.90;;;;;;6227384;23;20198;-85
2021/11/14 06:50:15;;;;;;;28.80;22.73;;;8.40;99.90;;;;;;6225882;23;20679;-85
2021/11/14 06:52:44;;;;;;;33.17;25.40;;;8.20;99.90;;;;;;6225118;23;20182;-87
2021/11/14 06:55:12;;;;;;;30.33;23.65;;;8.10;99.90;;;;;;6224129;23;20177;-86
2021/11/14 06:57:39;;;;;;;28.38;24.85;;;8.30;99.90;;;;;;6238075;22;20206;-85
2021/11/14 07:00:08;;;;;;;34.75;25.40;;;8.40;99.90;;;;;;6244012;22;20185;-86
2021/11/14 07:02:34;;;;;;;29.77;21.60;;;8.60;99.90;;;;;;6242259;23;20249;-87
2021/11/14 07:05:03;;;;;;;29.45;23.83;;;8.70;99.90;;;;;;6239698;23;20181;-87
2021/11/14 07:07:29;;;;;;;27.60;23.23;;;8.80;99.90;;;;;;6239358;23;20208;-87
2021/11/14 07:09:56;;;;;;;25.75;19.33;;;8.70;99.90;;;;;;6223382;23;20194;-87
2021/11/14 07:12:24;;;;;;;32.38;24.35;;;8.70;99.90;;;;;;6222840;23;20184;-87
2021/11/14 07:14:50;;;;;;;30.75;23.00;;;8.50;99.90;;;;;;6224373;23;20523;-86
2021/11/14 07:17:18;;;;;;;33.17;24.10;;;8.50;99.90;;;;;;6223894;23;20701;-87
2021/11/14 07:19:44;;;;;;;34.53;24.83;;;8.70;99.90;;;;;;6223984;23;20186;-87
2021/11/14 07:22:12;;;;;;;28.63;22.50;;;8.70;99.90;;;;;;6223706;23;20267;-86
2021/11/14 07:24:39;;;;;;;25.95;21.65;;;8.60;99.90;;;;;;6224217;23;20256;-86
2021/11/14 07:27:07;;;;;;;28.92;22.75;;;8.70;99.90;;;;;;6222157;23;20209;-87
2021/11/14 07:29:34;;;;;;;26.08;20.98;;;8.70;99.90;;;;;;6221237;23;20182;-86
2021/11/14 07:32:01;;;;;;;25.33;21.85;;;8.80;99.90;;;;;;6221096;23;20726;-87
2021/11/14 07:34:27;;;;;;;26.83;22.40;;;8.90;99.90;;;;;;6223149;23;20182;-86
2021/11/14 07:36:54;;;;;;;26.35;21.55;;;8.90;99.90;;;;;;6223308;23;20209;-86
2021/11/14 07:39:22;;;;;;;27.25;20.65;;;9.00;99.90;;;;;;6223656;23;20600;-85
2021/11/14 07:41:49;;;;;;;29.17;21.65;;;9.10;99.90;;;;;;6223428;23;20197;-86
2021/11/14 07:44:34;;;;;;;29.25;22.63;;;9.20;99.90;;;;;;6233123;23;20178;-87
2021/11/14 07:47:01;;;;;;;25.95;21.38;;;9.20;99.90;;;;;;6221759;23;20208;-87
2021/11/14 07:49:28;;;;;;;28.42;18.85;;;9.40;99.90;;;;;;6220775;23;20188;-85
2021/11/14 07:51:55;;;;;;;23.13;19.40;;;9.50;99.90;;;;;;6221118;23;20211;-85
2021/11/14 07:54:23;;;;;;;23.77;18.40;;;9.60;99.90;;;;;;6222490;23;20183;-86
2021/11/14 07:56:49;;;;;;;20.98;17.35;;;9.70;99.90;;;;;;6222644;23;20203;-85
2021/11/14 07:59:16;;;;;;;23.30;19.65;;;9.70;99.90;;;;;;6222348;23;20184;-86
2021/11/14 08:01:43;;;;;;;23.77;19.67;;;9.70;99.90;;;;;;6221462;23;20175;-85
2021/11/14 08:04:10;;;;;;;22.50;16.75;;;9.70;99.90;;;;;;6222058;23;20191;-85
2021/11/14 08:06:37;;;;;;;21.90;19.70;;;9.70;99.90;;;;;;6223528;23;20212;-87
2021/11/14 08:09:04;;;;;;;20.83;17.85;;;9.70;99.90;;;;;;6224029;23;20225;-88
2021/11/14 08:11:33;;;;;;;21.13;18.35;;;9.80;99.90;;;;;;6222293;23;20220;-85
2021/11/14 08:14:00;;;;;;;20.85;16.65;;;9.90;99.90;;;;;;6223269;23;20178;-85
2021/11/14 08:16:27;;;;;;;22.65;18.40;;;9.80;99.90;;;;;;6223641;23;20203;-85
2021/11/14 08:18:53;;;;;;;20.00;17.60;;;9.70;99.90;;;;;;6226558;23;20649;-85
2021/11/14 08:21:20;;;;;;;19.95;17.08;;;9.80;99.90;;;;;;6224604;23;20181;-88
2021/11/14 08:23:47;;;;;;;21.58;18.67;;;9.90;99.90;;;;;;6222330;23;20189;-86
2021/11/14 08:26:14;;;;;;;21.52;18.42;;;9.80;99.90;;;;;;6223682;23;20702;-84
2021/11/14 08:28:42;;;;;;;22.40;18.00;;;9.90;99.90;;;;;;6225041;23;20179;-87
2021/11/14 08:31:09;;;;;;;18.63;16.43;;;10.10;99.90;;;;;;6221718;23;20449;-88
2021/11/14 08:33:36;;;;;;;17.40;15.70;;;10.30;99.90;;;;;;6221663;23;20739;-87
2021/11/14 08:36:14;;;;;;;15.20;13.67;;;10.40;99.90;;;;;;6222142;23;20214;-88
2021/11/14 08:38:44;;;;;;;16.70;14.52;;;10.50;99.90;;;;;;6222112;23;20470;-87
2021/11/14 08:41:11;;;;;;;17.43;15.53;;;10.70;99.90;;;;;;6223227;23;20164;-88
2021/11/14 08:43:40;;;;;;;15.50;12.73;;;10.60;99.90;;;;;;6222657;23;20498;-87
2021/11/14 08:46:09;;;;;;;18.10;14.90;;;10.70;99.90;;;;;;6223749;23;20484;-88
2021/11/14 08:48:36;;;;;;;19.97;14.87;;;10.80;99.90;;;;;;6226678;23;20499;-88
2021/11/14 08:51:04;;;;;;;16.67;15.00;;;10.90;99.90;;;;;;6227655;23;20530;-88
2021/11/14 08:53:31;;;;;;;16.83;14.83;;;11.00;99.90;;;;;;6227509;23;20478;-88
2021/11/14 08:55:58;;;;;;;15.27;13.77;;;11.10;99.90;;;;;;6228207;23;20438;-87
2021/11/14 08:58:26;;;;;;;16.50;13.67;;;11.20;99.90;;;;;;6227648;23;20400;-87
2021/11/14 09:00:54;;;;;;;14.88;13.10;;;11.40;99.90;;;;;;6227677;23;20740;-86
2021/11/14 09:03:22;;;;;;;14.00;12.30;;;11.50;99.90;;;;;;6227120;23;20180;-88
2021/11/14 09:05:49;;;;;;;15.30;12.90;;;11.40;99.90;;;;;;6227877;23;20438;-88
2021/11/14 09:08:16;;;;;;;15.10;13.50;;;11.50;99.90;;;;;;6230122;23;20744;-88
2021/11/14 09:10:44;;;;;;;18.27;14.00;;;11.60;99.90;;;;;;6229093;23;20542;-87
2021/11/14 09:13:11;;;;;;;15.37;13.80;;;11.60;99.90;;;;;;6227343;23;20445;-87
2021/11/14 09:15:38;;;;;;;13.00;11.27;;;11.60;99.90;;;;;;6226431;23;20415;-87
2021/11/14 09:18:05;;;;;;;15.43;13.60;;;11.50;99.90;;;;;;6224817;23;20400;-88
2021/11/14 09:20:33;;;;;;;19.53;14.60;;;11.40;99.90;;;;;;6225512;23;20466;-87
2021/11/14 09:23:00;;;;;;;15.63;13.80;;;11.30;99.90;;;;;;6226495;23;20412;-87
2021/11/14 09:25:27;;;;;;;15.83;14.20;;;11.20;99.90;;;;;;6233718;23;20460;-87
2021/11/14 09:27:55;;;;;;;16.20;14.73;;;11.20;99.90;;;;;;6243397;23;20433;-87
2021/11/14 09:30:22;;;;;;;15.60;14.10;;;11.20;99.90;;;;;;6238503;22;20183;-87
2021/11/14 09:32:50;;;;;;;15.30;13.70;;;11.20;99.90;;;;;;6227652;23;20176;-87
2021/11/14 09:35:17;;;;;;;16.10;13.27;;;11.10;99.90;;;;;;6228940;23;20179;-87
2021/11/14 09:37:45;;;;;;;16.23;13.55;;;11.00;99.90;;;;;;6225241;23;20270;-86
2021/11/14 09:40:12;;;;;;;16.10;13.70;;;11.10;99.90;;;;;;6225355;23;20435;-87
2021/11/14 09:42:39;;;;;;;16.10;12.53;;;11.10;99.90;;;;;;6224938;23;20174;-86
2021/11/14 09:45:08;;;;;;;15.40;13.80;;;11.10;99.90;;;;;;6222440;23;20453;-87
2021/11/14 09:47:37;;;;;;;13.67;11.77;;;11.20;99.90;;;;;;6221058;23;20444;-87
2021/11/14 09:50:05;;;;;;;15.63;13.83;;;11.20;99.90;;;;;;6222049;23;20414;-87
2021/11/14 09:52:32;;;;;;;17.93;14.17;;;11.20;99.90;;;;;;6220826;23;20444;-87
2021/11/14 09:55:01;;;;;;;16.10;13.60;;;11.30;99.90;;;;;;6222780;23;20411;-86
2021/11/14 09:57:28;;;;;;;16.77;14.80;;;11.30;99.90;;;;;;6222075;23;20505;-86
2021/11/14 09:59:56;;;;;;;18.30;13.83;;;11.20;99.90;;;;;;6224735;23;20418;-86
2021/11/14 10:02:23;;;;;;;16.30;14.02;;;11.20;99.90;;;;;;6222572;23;20421;-86
2021/11/14 10:04:49;;;;;;;16.23;13.40;;;11.30;99.90;;;;;;6223096;23;20203;-87
2021/11/14 10:07:18;;;;;;;15.77;13.97;;;11.30;99.90;;;;;;6222872;23;20198;-85
2021/11/14 10:09:49;;;;;;;20.27;14.13;;;11.50;99.90;;;;;;6222758;23;20411;-85
2021/11/14 10:12:20;;;;;;;17.23;13.87;;;11.60;99.90;;;;;;6221918;23;20514;-85
2021/11/14 10:14:50;;;;;;;17.87;14.83;;;11.70;99.90;;;;;;6222025;23;21024;-85
2021/11/14 10:17:20;;;;;;;19.50;15.10;;;11.80;99.90;;;;;;6222459;23;20439;-87
2021/11/14 10:20:04;;;;;;;20.73;18.53;;;12.00;99.90;;;;;;6222820;23;20498;-85
2021/11/14 10:22:31;;;;;;;17.33;14.13;;;12.00;99.90;;;;;;6223641;23;20408;-85
2021/11/14 10:24:59;;;;;;;20.27;16.53;;;12.00;99.90;;;;;;6223899;23;20485;-85
2021/11/14 10:27:28;;;;;;;18.03;15.00;;;12.20;99.90;;;;;;6222233;23;20447;-84
2021/11/14 10:29:56;;;;;;;21.47;17.40;;;12.30;99.90;;;;;;6224061;23;20451;-85
2021/11/14 10:32:26;;;;;;;18.73;14.60;;;12.30;99.90;;;;;;6221880;23;20530;-85
2021/11/14 10:34:56;;;;;;;20.80;15.97;;;12.30;99.90;;;;;;6222511;23;20430;-85
2021/11/14 10:37:26;;;;;;;23.73;15.97;;;12.20;99.90;;;;;;6223579;23;20458;-86
2021/11/14 10:39:53;;;;;;;18.90;16.60;;;12.30;99.90;;;;;;6223532;23;20516;-85
2021/11/14 10:42:20;;;;;;;20.13;16.17;;;12.40;99.90;;;;;;6223192;23;20483;-85
2021/11/14 10:44:55;;;;;;;23.30;16.30;;;12.40;99.90;;;;;;6222785;23;20426;-85
2021/11/14 10:47:28;;;;;;;17.87;15.77;;;12.50;99.90;;;;;;6223991;23;20965;-85
2021/11/14 10:50:35;;;;;;;23.30;15.90;;;12.30;99.90;;;;;;6227058;23;20430;-84
2021/11/14 10:53:04;;;;;;;21.00;16.57;;;12.40;99.90;;;;;;6219518;23;20426;-84
2021/11/14 10:55:37;;;;;;;21.17;17.07;;;12.40;99.90;;;;;;6221522;23;20407;-83
2021/11/14 10:58:04;;;;;;;21.13;15.60;;;12.40;99.90;;;;;;6221280;23;20392;-84
2021/11/14 11:00:33;;;;;;;19.73;15.17;;;12.40;99.90;;;;;;6221148;23;20415;-83
2021/11/14 11:03:02;;;;;;;19.43;15.60;;;12.40;99.90;;;;;;6220445;23;20410;-84
2021/11/14 11:05:30;;;;;;;20.97;17.30;;;12.40;99.90;;;;;;6221464;23;20403;-83
2021/11/14 11:07:58;;;;;;;22.73;17.23;;;12.20;99.90;;;;;;6222003;23;20407;-83
2021/11/14 11:10:30;;;;;;;20.93;14.97;;;12.20;99.90;;;;;;6220857;23;20418;-83
2021/11/14 11:12:57;;;;;;;22.10;17.00;;;12.00;99.90;;;;;;6221795;23;20439;-83
2021/11/14 11:15:24;;;;;;;21.90;16.60;;;12.10;99.90;;;;;;6222378;23;20416;-83
2021/11/14 11:17:54;;;;;;;20.47;16.80;;;12.10;99.90;;;;;;6223167;23;20428;-83
2021/11/14 11:20:24;;;;;;;19.30;14.80;;;12.10;99.90;;;;;;6223464;23;20423;-83
2021/11/14 11:22:53;;;;;;;17.73;15.30;;;12.00;99.90;;;;;;6222600;23;20435;-83
2021/11/14 11:25:37;;;;;;;19.80;14.40;;;12.10;99.90;;;;;;6222429;23;20400;-84
2021/11/14 11:28:05;;;;;;;16.23;14.20;;;12.10;99.90;;;;;;6221025;23;20393;-84
2021/11/14 11:30:36;;;;;;;15.90;13.33;;;12.20;99.90;;;;;;6223269;23;20412;-83
2021/11/14 11:33:04;;;;;;;19.80;12.93;;;12.40;99.90;;;;;;6221867;23;20440;-84
2021/11/14 11:35:32;;;;;;;15.93;12.97;;;12.30;99.90;;;;;;6221100;23;20412;-83
2021/11/14 11:37:58;;;;;;;15.50;12.37;;;12.30;99.90;;;;;;6220191;23;20428;-84
2021/11/14 11:40:26;;;;;;;14.03;12.10;;;12.30;99.90;;;;;;6221442;23;20407;-84
2021/11/14 11:42:54;;;;;;;17.40;14.20;;;12.30;99.90;;;;;;6221634;23;20418;-84
2021/11/14 11:45:30;;;;;;;16.50;14.47;;;12.40;99.90;;;;;;6219684;23;20427;-83
2021/11/14 11:47:59;;;;;;;16.40;12.57;;;12.20;99.90;;;;;;6221349;23;20411;-83
2021/11/14 11:50:31;;;;;;;16.37;14.30;;;12.00;99.90;;;;;;6225051;23;20422;-82
2021/11/14 11:52:58;;;;;;;14.60;12.47;;;12.10;99.90;;;;;;6222764;23;20491;-83
2021/11/14 11:55:27;;;;;;;15.33;12.60;;;12.20;99.90;;;;;;6222318;23;20495;-82
2021/11/14 11:58:07;;;;;;;17.60;13.33;;;12.20;99.90;;;;;;6222531;23;20442;-83
2021/11/14 12:00:34;;;;;;;15.67;13.87;;;12.30;99.90;;;;;;6221815;23;20389;-82
2021/11/14 12:03:23;;;;;;;15.27;13.27;;;12.50;99.90;;;;;;6221917;23;20411;-83
2021/11/14 12:05:52;;;;;;;16.30;14.10;;;12.40;99.90;;;;;;6220173;23;20955;-82
2021/11/14 12:08:18;;;;;;;14.10;11.83;;;12.50;99.90;;;;;;6219270;23;20409;-83
2021/11/14 12:10:57;;;;;;;15.20;12.97;;;12.40;99.90;;;;;;6220049;23;20466;-83
2021/11/14 12:13:29;;;;;;;14.13;12.73;;;12.30;99.90;;;;;;6219950;23;20475;-85
2021/11/14 12:15:59;;;;;;;15.33;13.50;;;12.40;99.90;;;;;;6220932;23;20425;-82
2021/11/14 12:18:26;;;;;;;15.10;12.27;;;12.40;99.90;;;;;;6220456;23;20503;-82
2021/11/14 12:20:55;;;;;;;14.93;12.13;;;12.40;99.90;;;;;;6220534;23;20401;-84
2021/11/14 12:23:27;;;;;;;16.67;13.50;;;12.50;99.90;;;;;;6218766;23;20495;-84
2021/11/14 12:25:57;;;;;;;16.27;13.13;;;12.80;99.90;;;;;;6219667;23;20441;-85
2021/11/14 12:28:26;;;;;;;15.27;12.50;;;12.90;99.90;;;;;;6220106;23;20385;-84
2021/11/14 12:31:04;;;;;;;16.43;12.87;;;13.20;99.90;;;;;;6220111;23;20404;-84
2021/11/14 12:33:33;;;;;;;15.27;13.67;;;13.40;99.90;;;;;;6219813;23;20468;-84
2021/11/14 12:36:09;;;;;;;17.37;14.97;;;13.40;99.90;;;;;;6220091;23;20467;-85
2021/11/14 12:38:37;;;;;;;16.50;14.70;;;13.10;99.90;;;;;;6220695;23;20408;-85
2021/11/14 12:41:08;;;;;;;17.63;15.10;;;12.70;99.90;;;;;;6221222;23;20408;-85
2021/11/14 12:43:37;;;;;;;19.33;16.40;;;12.50;99.90;;;;;;6221170;23;20400;-85
2021/11/14 12:46:09;;;;;;;21.37;16.93;;;12.10;99.90;;;;;;6223559;23;20423;-85
2021/11/14 12:48:37;;;;;;;19.23;15.90;;;11.80;99.90;;;;;;6225235;23;20412;-85
2021/11/14 12:51:09;;;;;;;16.83;15.17;;;11.70;99.90;;;;;;6225845;23;20408;-85
2021/11/14 12:53:51;;;;;;;21.80;17.27;;;11.50;99.90;;;;;;6224576;23;20401;-85
2021/11/14 12:56:25;;;;;;;17.53;13.90;;;11.50;99.90;;;;;;6225055;23;20432;-86
2021/11/14 12:58:54;;;;;;;18.37;14.40;;;11.10;99.90;;;;;;6225260;23;20391;-85